<?xml version="1.0" encoding="UTF-8" standalone="no" ?>
<gpx xmlns="http://www.topografix.com/GPX/1/1" xmlns:xsi="http://www.w3.org/2001/XMLSchema-instance" xsi:schemaLocation="http://www.topografix.com/GPX/1/1 http://www.topografix.com/GPX/1/1/gpx.xsd" version="1.1" creator="VisuGPX - https://www.visugpx.com">
  <metadata>
    <name>GRTE cavaliers dimanche 20 juil</name>
  </metadata>
  <trk>
    <name><![CDATA[Cavaliers GRTE dimanche-21053756]]></name>
    <extensions>
      <line xmlns="http://www.topografix.com/GPX/gpx_style/0/2">
        <color>0000FF</color>
        <width>4</width>
      </line>
    </extensions>
    <trkseg>
      <trkpt lat="45.53218" lon="4.37569">
        <ele>670</ele>
        <time>2025-07-09T07:47:10Z</time>
      </trkpt>
      <trkpt lat="45.53272" lon="4.3756">
        <ele>662</ele>
        <time>2025-07-09T07:47:54Z</time>
      </trkpt>
      <trkpt lat="45.53319" lon="4.37598">
        <ele>657</ele>
        <time>2025-07-09T07:48:37Z</time>
      </trkpt>
      <trkpt lat="45.53366" lon="4.37671">
        <ele>654</ele>
        <time>2025-07-09T07:49:32Z</time>
      </trkpt>
      <trkpt lat="45.5337" lon="4.37754">
        <ele>660</ele>
        <time>2025-07-09T07:50:19Z</time>
      </trkpt>
      <trkpt lat="45.53406" lon="4.3783">
        <ele>660</ele>
        <time>2025-07-09T07:51:11Z</time>
      </trkpt>
      <trkpt lat="45.53482" lon="4.3783">
        <ele>661</ele>
        <time>2025-07-09T07:52:11Z</time>
      </trkpt>
      <trkpt lat="45.53529" lon="4.37799">
        <ele>660</ele>
        <time>2025-07-09T07:52:53Z</time>
      </trkpt>
      <trkpt lat="45.53504" lon="4.37885">
        <ele>666</ele>
        <time>2025-07-09T07:53:45Z</time>
      </trkpt>
      <trkpt lat="45.53473" lon="4.37945">
        <ele>668</ele>
        <time>2025-07-09T07:54:27Z</time>
      </trkpt>
      <trkpt lat="45.53451" lon="4.38079">
        <ele>670</ele>
        <time>2025-07-09T07:55:44Z</time>
      </trkpt>
      <trkpt lat="45.53355" lon="4.38117">
        <ele>667</ele>
        <time>2025-07-09T07:57:04Z</time>
      </trkpt>
      <trkpt lat="45.53281" lon="4.38225">
        <ele>672</ele>
        <time>2025-07-09T07:58:29Z</time>
      </trkpt>
      <trkpt lat="45.5323" lon="4.3821">
        <ele>673</ele>
        <time>2025-07-09T07:59:10Z</time>
      </trkpt>
      <trkpt lat="45.53192" lon="4.38235">
        <ele>677</ele>
        <time>2025-07-09T07:59:44Z</time>
      </trkpt>
      <trkpt lat="45.52801" lon="4.38413">
        <ele>725</ele>
        <time>2025-07-09T08:05:12Z</time>
      </trkpt>
      <trkpt lat="45.52752" lon="4.38417">
        <ele>725</ele>
        <time>2025-07-09T08:05:52Z</time>
      </trkpt>
      <trkpt lat="45.52734" lon="4.38652">
        <ele>744</ele>
        <time>2025-07-09T08:08:04Z</time>
      </trkpt>
      <trkpt lat="45.5262" lon="4.38923">
        <ele>761</ele>
        <time>2025-07-09T08:11:02Z</time>
      </trkpt>
      <trkpt lat="45.52658" lon="4.3927">
        <ele>775</ele>
        <time>2025-07-09T08:14:19Z</time>
      </trkpt>
      <trkpt lat="45.52656" lon="4.39471">
        <ele>785</ele>
        <time>2025-07-09T08:16:11Z</time>
      </trkpt>
      <trkpt lat="45.52623" lon="4.39582">
        <ele>791</ele>
        <time>2025-07-09T08:17:19Z</time>
      </trkpt>
      <trkpt lat="45.52616" lon="4.39764">
        <ele>803</ele>
        <time>2025-07-09T08:19:01Z</time>
      </trkpt>
      <trkpt lat="45.52647" lon="4.39911">
        <ele>814</ele>
        <time>2025-07-09T08:20:27Z</time>
      </trkpt>
      <trkpt lat="45.52768" lon="4.4007">
        <ele>822</ele>
        <time>2025-07-09T08:22:39Z</time>
      </trkpt>
      <trkpt lat="45.52884" lon="4.40331">
        <ele>836</ele>
        <time>2025-07-09T08:25:32Z</time>
      </trkpt>
      <trkpt lat="45.52899" lon="4.40423">
        <ele>839</ele>
        <time>2025-07-09T08:26:25Z</time>
      </trkpt>
      <trkpt lat="45.52953" lon="4.40417">
        <ele>839</ele>
        <time>2025-07-09T08:27:09Z</time>
      </trkpt>
      <trkpt lat="45.53024" lon="4.40589">
        <ele>849</ele>
        <time>2025-07-09T08:29:01Z</time>
      </trkpt>
      <trkpt lat="45.531" lon="4.40681">
        <ele>862</ele>
        <time>2025-07-09T08:30:20Z</time>
      </trkpt>
      <trkpt lat="45.53098" lon="4.40736">
        <ele>865</ele>
        <time>2025-07-09T08:30:51Z</time>
      </trkpt>
      <trkpt lat="45.53118" lon="4.4079">
        <ele>866</ele>
        <time>2025-07-09T08:31:26Z</time>
      </trkpt>
      <trkpt lat="45.53154" lon="4.40825">
        <ele>868</ele>
        <time>2025-07-09T08:32:01Z</time>
      </trkpt>
      <trkpt lat="45.53288" lon="4.4087">
        <ele>860</ele>
        <time>2025-07-09T08:33:51Z</time>
      </trkpt>
      <trkpt lat="45.53237" lon="4.40973">
        <ele>859</ele>
        <time>2025-07-09T08:35:01Z</time>
      </trkpt>
      <trkpt lat="45.53237" lon="4.41003">
        <ele>857</ele>
        <time>2025-07-09T08:35:18Z</time>
      </trkpt>
      <trkpt lat="45.53186" lon="4.41038">
        <ele>853</ele>
        <time>2025-07-09T08:36:04Z</time>
      </trkpt>
      <trkpt lat="45.53103" lon="4.4119">
        <ele>848</ele>
        <time>2025-07-09T08:37:52Z</time>
      </trkpt>
      <trkpt lat="45.53088" lon="4.41308">
        <ele>852</ele>
        <time>2025-07-09T08:38:59Z</time>
      </trkpt>
      <trkpt lat="45.53091" lon="4.41418">
        <ele>852</ele>
        <time>2025-07-09T08:40:01Z</time>
      </trkpt>
      <trkpt lat="45.53076" lon="4.41514">
        <ele>855</ele>
        <time>2025-07-09T08:40:56Z</time>
      </trkpt>
      <trkpt lat="45.53082" lon="4.41619">
        <ele>859</ele>
        <time>2025-07-09T08:41:55Z</time>
      </trkpt>
      <trkpt lat="45.5306" lon="4.41729">
        <ele>859</ele>
        <time>2025-07-09T08:42:59Z</time>
      </trkpt>
      <trkpt lat="45.52917" lon="4.42018">
        <ele>850</ele>
        <time>2025-07-09T08:46:18Z</time>
      </trkpt>
      <trkpt lat="45.52704" lon="4.42115">
        <ele>836</ele>
        <time>2025-07-09T08:49:17Z</time>
      </trkpt>
      <trkpt lat="45.52658" lon="4.42467">
        <ele>827</ele>
        <time>2025-07-09T08:52:37Z</time>
      </trkpt>
      <trkpt lat="45.52675" lon="4.42572">
        <ele>822</ele>
        <time>2025-07-09T08:53:38Z</time>
      </trkpt>
      <trkpt lat="45.52755" lon="4.42769">
        <ele>819</ele>
        <time>2025-07-09T08:55:46Z</time>
      </trkpt>
      <trkpt lat="45.52985" lon="4.42967">
        <ele>803</ele>
        <time>2025-07-09T08:59:21Z</time>
      </trkpt>
      <trkpt lat="45.53075" lon="4.42982">
        <ele>796</ele>
        <time>2025-07-09T09:00:33Z</time>
      </trkpt>
      <trkpt lat="45.53191" lon="4.43051">
        <ele>790</ele>
        <time>2025-07-09T09:02:14Z</time>
      </trkpt>
      <trkpt lat="45.53213" lon="4.43126">
        <ele>789</ele>
        <time>2025-07-09T09:02:59Z</time>
      </trkpt>
      <trkpt lat="45.53216" lon="4.43055">
        <ele>786</ele>
        <time>2025-07-09T09:03:39Z</time>
      </trkpt>
      <trkpt lat="45.53314" lon="4.43068">
        <ele>771</ele>
        <time>2025-07-09T09:04:58Z</time>
      </trkpt>
      <trkpt lat="45.53336" lon="4.43149">
        <ele>769</ele>
        <time>2025-07-09T09:05:47Z</time>
      </trkpt>
      <trkpt lat="45.53464" lon="4.4325">
        <ele>754</ele>
        <time>2025-07-09T09:07:44Z</time>
      </trkpt>
      <trkpt lat="45.53493" lon="4.43302">
        <ele>752</ele>
        <time>2025-07-09T09:08:21Z</time>
      </trkpt>
      <trkpt lat="45.5359" lon="4.43347">
        <ele>745</ele>
        <time>2025-07-09T09:09:43Z</time>
      </trkpt>
      <trkpt lat="45.53654" lon="4.43353">
        <ele>741</ele>
        <time>2025-07-09T09:10:34Z</time>
      </trkpt>
      <trkpt lat="45.53709" lon="4.43295">
        <ele>743</ele>
        <time>2025-07-09T09:11:29Z</time>
      </trkpt>
      <trkpt lat="45.53763" lon="4.43368">
        <ele>749</ele>
        <time>2025-07-09T09:12:29Z</time>
      </trkpt>
      <trkpt lat="45.53894" lon="4.43411">
        <ele>766</ele>
        <time>2025-07-09T09:14:16Z</time>
      </trkpt>
      <trkpt lat="45.53998" lon="4.4352">
        <ele>772</ele>
        <time>2025-07-09T09:16:00Z</time>
      </trkpt>
      <trkpt lat="45.54077" lon="4.43604">
        <ele>774</ele>
        <time>2025-07-09T09:17:18Z</time>
      </trkpt>
      <trkpt lat="45.54154" lon="4.43675">
        <ele>771</ele>
        <time>2025-07-09T09:18:32Z</time>
      </trkpt>
      <trkpt lat="45.54208" lon="4.43756">
        <ele>774</ele>
        <time>2025-07-09T09:19:34Z</time>
      </trkpt>
      <trkpt lat="45.54262" lon="4.43729">
        <ele>773</ele>
        <time>2025-07-09T09:20:20Z</time>
      </trkpt>
      <trkpt lat="45.54285" lon="4.43701">
        <ele>779</ele>
        <time>2025-07-09T09:20:45Z</time>
      </trkpt>
      <trkpt lat="45.54276" lon="4.43628">
        <ele>782</ele>
        <time>2025-07-09T09:21:26Z</time>
      </trkpt>
      <trkpt lat="45.54288" lon="4.43574">
        <ele>791</ele>
        <time>2025-07-09T09:21:58Z</time>
      </trkpt>
      <trkpt lat="45.54432" lon="4.43724">
        <ele>815</ele>
        <time>2025-07-09T09:24:21Z</time>
      </trkpt>
      <trkpt lat="45.54599" lon="4.4381">
        <ele>834</ele>
        <time>2025-07-09T09:26:43Z</time>
      </trkpt>
      <trkpt lat="45.54632" lon="4.43812">
        <ele>840</ele>
        <time>2025-07-09T09:27:09Z</time>
      </trkpt>
      <trkpt lat="45.54712" lon="4.4401">
        <ele>833</ele>
        <time>2025-07-09T09:29:17Z</time>
      </trkpt>
      <trkpt lat="45.54739" lon="4.441">
        <ele>838</ele>
        <time>2025-07-09T09:30:12Z</time>
      </trkpt>
      <trkpt lat="45.54606" lon="4.44218">
        <ele>857</ele>
        <time>2025-07-09T09:32:18Z</time>
      </trkpt>
      <trkpt lat="45.54561" lon="4.44304">
        <ele>861</ele>
        <time>2025-07-09T09:33:18Z</time>
      </trkpt>
      <trkpt lat="45.54537" lon="4.44351">
        <ele>858</ele>
        <time>2025-07-09T09:33:50Z</time>
      </trkpt>
      <trkpt lat="45.5453" lon="4.44475">
        <ele>854</ele>
        <time>2025-07-09T09:35:00Z</time>
      </trkpt>
      <trkpt lat="45.54509" lon="4.44563">
        <ele>851</ele>
        <time>2025-07-09T09:35:52Z</time>
      </trkpt>
      <trkpt lat="45.54525" lon="4.44799">
        <ele>844</ele>
        <time>2025-07-09T09:38:05Z</time>
      </trkpt>
      <trkpt lat="45.54672" lon="4.44574">
        <ele>854</ele>
        <time>2025-07-09T09:40:58Z</time>
      </trkpt>
      <trkpt lat="45.54769" lon="4.44565">
        <ele>861</ele>
        <time>2025-07-09T09:42:16Z</time>
      </trkpt>
      <trkpt lat="45.54824" lon="4.44565">
        <ele>863</ele>
        <time>2025-07-09T09:43:00Z</time>
      </trkpt>
      <trkpt lat="45.54898" lon="4.44535">
        <ele>868</ele>
        <time>2025-07-09T09:44:01Z</time>
      </trkpt>
      <trkpt lat="45.54997" lon="4.4452">
        <ele>872</ele>
        <time>2025-07-09T09:45:21Z</time>
      </trkpt>
      <trkpt lat="45.55081" lon="4.44525">
        <ele>876</ele>
        <time>2025-07-09T09:46:28Z</time>
      </trkpt>
      <trkpt lat="45.55156" lon="4.44467">
        <ele>882</ele>
        <time>2025-07-09T09:47:37Z</time>
      </trkpt>
      <trkpt lat="45.55257" lon="4.44351">
        <ele>887</ele>
        <time>2025-07-09T09:49:20Z</time>
      </trkpt>
      <trkpt lat="45.55379" lon="4.44362">
        <ele>888</ele>
        <time>2025-07-09T09:50:58Z</time>
      </trkpt>
      <trkpt lat="45.55457" lon="4.44319">
        <ele>886</ele>
        <time>2025-07-09T09:52:05Z</time>
      </trkpt>
      <trkpt lat="45.55503" lon="4.44241">
        <ele>879</ele>
        <time>2025-07-09T09:53:02Z</time>
      </trkpt>
      <trkpt lat="45.55588" lon="4.43995">
        <ele>851</ele>
        <time>2025-07-09T09:55:36Z</time>
      </trkpt>
      <trkpt lat="45.55616" lon="4.43872">
        <ele>841</ele>
        <time>2025-07-09T09:56:49Z</time>
      </trkpt>
      <trkpt lat="45.55633" lon="4.43752">
        <ele>829</ele>
        <time>2025-07-09T09:57:57Z</time>
      </trkpt>
      <trkpt lat="45.55709" lon="4.43508">
        <ele>801</ele>
        <time>2025-07-09T10:00:27Z</time>
      </trkpt>
      <trkpt lat="45.55762" lon="4.43544">
        <ele>801</ele>
        <time>2025-07-09T10:01:14Z</time>
      </trkpt>
      <trkpt lat="45.55796" lon="4.43621">
        <ele>804</ele>
        <time>2025-07-09T10:02:05Z</time>
      </trkpt>
      <trkpt lat="45.55921" lon="4.43703">
        <ele>799</ele>
        <time>2025-07-09T10:03:55Z</time>
      </trkpt>
      <trkpt lat="45.55909" lon="4.43636">
        <ele>798</ele>
        <time>2025-07-09T10:04:34Z</time>
      </trkpt>
      <trkpt lat="45.55993" lon="4.43405">
        <ele>791</ele>
        <time>2025-07-09T10:07:00Z</time>
      </trkpt>
      <trkpt lat="45.55977" lon="4.43263">
        <ele>778</ele>
        <time>2025-07-09T10:08:21Z</time>
      </trkpt>
      <trkpt lat="45.55953" lon="4.43216">
        <ele>774</ele>
        <time>2025-07-09T10:08:53Z</time>
      </trkpt>
      <trkpt lat="45.55978" lon="4.43106">
        <ele>765</ele>
        <time>2025-07-09T10:09:58Z</time>
      </trkpt>
      <trkpt lat="45.56265" lon="4.43134">
        <ele>731</ele>
        <time>2025-07-09T10:13:48Z</time>
      </trkpt>
      <trkpt lat="45.56309" lon="4.43143">
        <ele>729</ele>
        <time>2025-07-09T10:14:24Z</time>
      </trkpt>
      <trkpt lat="45.56432" lon="4.43203">
        <ele>718</ele>
        <time>2025-07-09T10:16:08Z</time>
      </trkpt>
      <trkpt lat="45.56451" lon="4.43083">
        <ele>731</ele>
        <time>2025-07-09T10:17:17Z</time>
      </trkpt>
      <trkpt lat="45.56424" lon="4.42943">
        <ele>754</ele>
        <time>2025-07-09T10:18:38Z</time>
      </trkpt>
      <trkpt lat="45.56385" lon="4.42842">
        <ele>768</ele>
        <time>2025-07-09T10:19:43Z</time>
      </trkpt>
      <trkpt lat="45.5634" lon="4.42649">
        <ele>768</ele>
        <time>2025-07-09T10:21:37Z</time>
      </trkpt>
      <trkpt lat="45.56243" lon="4.42486">
        <ele>765</ele>
        <time>2025-07-09T10:23:37Z</time>
      </trkpt>
      <trkpt lat="45.5625" lon="4.42439">
        <ele>765</ele>
        <time>2025-07-09T10:24:04Z</time>
      </trkpt>
      <trkpt lat="45.56183" lon="4.42398">
        <ele>765</ele>
        <time>2025-07-09T10:25:02Z</time>
      </trkpt>
      <trkpt lat="45.56101" lon="4.42394">
        <ele>762</ele>
        <time>2025-07-09T10:26:08Z</time>
      </trkpt>
      <trkpt lat="45.56082" lon="4.42473">
        <ele>759</ele>
        <time>2025-07-09T10:26:55Z</time>
      </trkpt>
      <trkpt lat="45.56116" lon="4.4251">
        <ele>761</ele>
        <time>2025-07-09T10:27:29Z</time>
      </trkpt>
      <trkpt lat="45.56071" lon="4.42581">
        <ele>754</ele>
        <time>2025-07-09T10:28:23Z</time>
      </trkpt>
      <trkpt lat="45.56026" lon="4.42664">
        <ele>745</ele>
        <time>2025-07-09T10:29:22Z</time>
      </trkpt>
      <trkpt lat="45.55981" lon="4.4266">
        <ele>740</ele>
        <time>2025-07-09T10:29:58Z</time>
      </trkpt>
      <trkpt lat="45.55942" lon="4.42658">
        <ele>737</ele>
        <time>2025-07-09T10:30:29Z</time>
      </trkpt>
      <trkpt lat="45.55849" lon="4.42673">
        <ele>738</ele>
        <time>2025-07-09T10:31:44Z</time>
      </trkpt>
      <trkpt lat="45.5582" lon="4.42641">
        <ele>733</ele>
        <time>2025-07-09T10:32:13Z</time>
      </trkpt>
      <trkpt lat="45.55751" lon="4.42623">
        <ele>731</ele>
        <time>2025-07-09T10:33:09Z</time>
      </trkpt>
      <trkpt lat="45.5572" lon="4.42514">
        <ele>726</ele>
        <time>2025-07-09T10:34:15Z</time>
      </trkpt>
      <trkpt lat="45.55711" lon="4.42471">
        <ele>722</ele>
        <time>2025-07-09T10:34:40Z</time>
      </trkpt>
      <trkpt lat="45.55582" lon="4.42422">
        <ele>727</ele>
        <time>2025-07-09T10:36:27Z</time>
      </trkpt>
      <trkpt lat="45.55565" lon="4.42362">
        <ele>723</ele>
        <time>2025-07-09T10:37:04Z</time>
      </trkpt>
      <trkpt lat="45.55514" lon="4.42328">
        <ele>722</ele>
        <time>2025-07-09T10:37:49Z</time>
      </trkpt>
      <trkpt lat="45.55545" lon="4.42256">
        <ele>719</ele>
        <time>2025-07-09T10:38:36Z</time>
      </trkpt>
      <trkpt lat="45.55533" lon="4.42225">
        <ele>717</ele>
        <time>2025-07-09T10:38:56Z</time>
      </trkpt>
      <trkpt lat="45.55598" lon="4.41863">
        <ele>693</ele>
        <time>2025-07-09T10:42:25Z</time>
      </trkpt>
      <trkpt lat="45.55611" lon="4.41764">
        <ele>686</ele>
        <time>2025-07-09T10:43:22Z</time>
      </trkpt>
      <trkpt lat="45.55603" lon="4.41594">
        <ele>674</ele>
        <time>2025-07-09T10:44:57Z</time>
      </trkpt>
      <trkpt lat="45.55634" lon="4.41394">
        <ele>664</ele>
        <time>2025-07-09T10:46:52Z</time>
      </trkpt>
      <trkpt lat="45.55611" lon="4.41361">
        <ele>663</ele>
        <time>2025-07-09T10:47:18Z</time>
      </trkpt>
      <trkpt lat="45.55665" lon="4.41234">
        <ele>658</ele>
        <time>2025-07-09T10:48:42Z</time>
      </trkpt>
      <trkpt lat="45.55685" lon="4.41045">
        <ele>649</ele>
        <time>2025-07-09T10:50:29Z</time>
      </trkpt>
      <trkpt lat="45.55679" lon="4.41004">
        <ele>645</ele>
        <time>2025-07-09T10:50:52Z</time>
      </trkpt>
      <trkpt lat="45.55638" lon="4.4097">
        <ele>646</ele>
        <time>2025-07-09T10:51:30Z</time>
      </trkpt>
      <trkpt lat="45.55623" lon="4.40898">
        <ele>647</ele>
        <time>2025-07-09T10:52:12Z</time>
      </trkpt>
      <trkpt lat="45.55589" lon="4.40949">
        <ele>652</ele>
        <time>2025-07-09T10:52:52Z</time>
      </trkpt>
      <trkpt lat="45.55592" lon="4.40975">
        <ele>652</ele>
        <time>2025-07-09T10:53:07Z</time>
      </trkpt>
      <trkpt lat="45.55587" lon="4.41019">
        <ele>652</ele>
        <time>2025-07-09T10:53:32Z</time>
      </trkpt>
      <trkpt lat="45.55553" lon="4.41027">
        <ele>656</ele>
        <time>2025-07-09T10:53:59Z</time>
      </trkpt>
      <trkpt lat="45.55524" lon="4.41081">
        <ele>662</ele>
        <time>2025-07-09T10:54:37Z</time>
      </trkpt>
      <trkpt lat="45.55489" lon="4.41084">
        <ele>667</ele>
        <time>2025-07-09T10:55:05Z</time>
      </trkpt>
      <trkpt lat="45.55475" lon="4.41146">
        <ele>673</ele>
        <time>2025-07-09T10:55:42Z</time>
      </trkpt>
      <trkpt lat="45.55389" lon="4.41242">
        <ele>684</ele>
        <time>2025-07-09T10:57:09Z</time>
      </trkpt>
      <trkpt lat="45.55288" lon="4.41255">
        <ele>693</ele>
        <time>2025-07-09T10:58:31Z</time>
      </trkpt>
      <trkpt lat="45.55145" lon="4.41379">
        <ele>701</ele>
        <time>2025-07-09T11:00:45Z</time>
      </trkpt>
      <trkpt lat="45.55127" lon="4.41322">
        <ele>703</ele>
        <time>2025-07-09T11:01:20Z</time>
      </trkpt>
      <trkpt lat="45.54956" lon="4.41335">
        <ele>694</ele>
        <time>2025-07-09T11:03:37Z</time>
      </trkpt>
      <trkpt lat="45.54955" lon="4.41291">
        <ele>691</ele>
        <time>2025-07-09T11:04:01Z</time>
      </trkpt>
      <trkpt lat="45.54869" lon="4.41257">
        <ele>680</ele>
        <time>2025-07-09T11:05:13Z</time>
      </trkpt>
      <trkpt lat="45.54781" lon="4.41314">
        <ele>671</ele>
        <time>2025-07-09T11:06:30Z</time>
      </trkpt>
      <trkpt lat="45.54748" lon="4.41278">
        <ele>668</ele>
        <time>2025-07-09T11:07:03Z</time>
      </trkpt>
      <trkpt lat="45.54715" lon="4.41281">
        <ele>666</ele>
        <time>2025-07-09T11:07:30Z</time>
      </trkpt>
      <trkpt lat="45.5471" lon="4.41327">
        <ele>666</ele>
        <time>2025-07-09T11:07:56Z</time>
      </trkpt>
      <trkpt lat="45.54663" lon="4.41361">
        <ele>665</ele>
        <time>2025-07-09T11:08:38Z</time>
      </trkpt>
      <trkpt lat="45.54625" lon="4.41428">
        <ele>668</ele>
        <time>2025-07-09T11:09:27Z</time>
      </trkpt>
      <trkpt lat="45.54599" lon="4.4142">
        <ele>669</ele>
        <time>2025-07-09T11:09:48Z</time>
      </trkpt>
      <trkpt lat="45.54574" lon="4.41381">
        <ele>669</ele>
        <time>2025-07-09T11:10:17Z</time>
      </trkpt>
      <trkpt lat="45.54561" lon="4.41356">
        <ele>669</ele>
        <time>2025-07-09T11:10:35Z</time>
      </trkpt>
      <trkpt lat="45.54545" lon="4.41301">
        <ele>668</ele>
        <time>2025-07-09T11:11:08Z</time>
      </trkpt>
      <trkpt lat="45.54549" lon="4.41169">
        <ele>666</ele>
        <time>2025-07-09T11:12:22Z</time>
      </trkpt>
      <trkpt lat="45.54532" lon="4.41118">
        <ele>672</ele>
        <time>2025-07-09T11:12:54Z</time>
      </trkpt>
      <trkpt lat="45.54542" lon="4.41055">
        <ele>676</ele>
        <time>2025-07-09T11:13:30Z</time>
      </trkpt>
      <trkpt lat="45.54542" lon="4.40986">
        <ele>681</ele>
        <time>2025-07-09T11:14:09Z</time>
      </trkpt>
      <trkpt lat="45.54509" lon="4.40983">
        <ele>686</ele>
        <time>2025-07-09T11:14:35Z</time>
      </trkpt>
      <trkpt lat="45.54445" lon="4.4089">
        <ele>698</ele>
        <time>2025-07-09T11:15:49Z</time>
      </trkpt>
      <trkpt lat="45.54349" lon="4.40836">
        <ele>711</ele>
        <time>2025-07-09T11:17:11Z</time>
      </trkpt>
      <trkpt lat="45.54324" lon="4.40833">
        <ele>714</ele>
        <time>2025-07-09T11:17:31Z</time>
      </trkpt>
      <trkpt lat="45.54261" lon="4.40755">
        <ele>721</ele>
        <time>2025-07-09T11:18:38Z</time>
      </trkpt>
      <trkpt lat="45.54204" lon="4.40735">
        <ele>728</ele>
        <time>2025-07-09T11:19:25Z</time>
      </trkpt>
      <trkpt lat="45.54161" lon="4.4068">
        <ele>736</ele>
        <time>2025-07-09T11:20:11Z</time>
      </trkpt>
      <trkpt lat="45.54058" lon="4.40585">
        <ele>753</ele>
        <time>2025-07-09T11:21:49Z</time>
      </trkpt>
      <trkpt lat="45.53943" lon="4.40466">
        <ele>768</ele>
        <time>2025-07-09T11:23:43Z</time>
      </trkpt>
      <trkpt lat="45.53943" lon="4.40442">
        <ele>766</ele>
        <time>2025-07-09T11:23:57Z</time>
      </trkpt>
      <trkpt lat="45.5403" lon="4.40321">
        <ele>749</ele>
        <time>2025-07-09T11:25:34Z</time>
      </trkpt>
      <trkpt lat="45.54128" lon="4.40251">
        <ele>738</ele>
        <time>2025-07-09T11:27:02Z</time>
      </trkpt>
      <trkpt lat="45.54163" lon="4.40207">
        <ele>732</ele>
        <time>2025-07-09T11:27:39Z</time>
      </trkpt>
      <trkpt lat="45.54214" lon="4.40096">
        <ele>729</ele>
        <time>2025-07-09T11:28:53Z</time>
      </trkpt>
      <trkpt lat="45.54116" lon="4.39987">
        <ele>726</ele>
        <time>2025-07-09T11:30:33Z</time>
      </trkpt>
      <trkpt lat="45.54003" lon="4.39632">
        <ele>738</ele>
        <time>2025-07-09T11:34:12Z</time>
      </trkpt>
      <trkpt lat="45.53934" lon="4.39519">
        <ele>734</ele>
        <time>2025-07-09T11:35:36Z</time>
      </trkpt>
      <trkpt lat="45.53846" lon="4.39278">
        <ele>726</ele>
        <time>2025-07-09T11:38:08Z</time>
      </trkpt>
      <trkpt lat="45.53748" lon="4.39182">
        <ele>717</ele>
        <time>2025-07-09T11:39:43Z</time>
      </trkpt>
      <trkpt lat="45.53652" lon="4.38905">
        <ele>710</ele>
        <time>2025-07-09T11:42:37Z</time>
      </trkpt>
      <trkpt lat="45.53445" lon="4.38706">
        <ele>719</ele>
        <time>2025-07-09T11:45:56Z</time>
      </trkpt>
      <trkpt lat="45.53278" lon="4.38339">
        <ele>681</ele>
        <time>2025-07-09T11:50:02Z</time>
      </trkpt>
      <trkpt lat="45.53272" lon="4.38262">
        <ele>674</ele>
        <time>2025-07-09T11:50:45Z</time>
      </trkpt>
      <trkpt lat="45.53265" lon="4.38223">
        <ele>672</ele>
        <time>2025-07-09T11:51:08Z</time>
      </trkpt>
      <trkpt lat="45.53335" lon="4.3812">
        <ele>666</ele>
        <time>2025-07-09T11:52:28Z</time>
      </trkpt>
      <trkpt lat="45.53436" lon="4.38066">
        <ele>668</ele>
        <time>2025-07-09T11:53:55Z</time>
      </trkpt>
      <trkpt lat="45.53452" lon="4.3803">
        <ele>668</ele>
        <time>2025-07-09T11:54:19Z</time>
      </trkpt>
      <trkpt lat="45.53452" lon="4.37966">
        <ele>666</ele>
        <time>2025-07-09T11:54:55Z</time>
      </trkpt>
      <trkpt lat="45.53474" lon="4.37912">
        <ele>666</ele>
        <time>2025-07-09T11:55:30Z</time>
      </trkpt>
      <trkpt lat="45.53517" lon="4.37843">
        <ele>663</ele>
        <time>2025-07-09T11:56:21Z</time>
      </trkpt>
      <trkpt lat="45.53521" lon="4.37776">
        <ele>659</ele>
        <time>2025-07-09T11:56:59Z</time>
      </trkpt>
      <trkpt lat="45.53461" lon="4.37822">
        <ele>660</ele>
        <time>2025-07-09T11:57:54Z</time>
      </trkpt>
      <trkpt lat="45.53415" lon="4.37809">
        <ele>658</ele>
        <time>2025-07-09T11:58:31Z</time>
      </trkpt>
      <trkpt lat="45.53388" lon="4.37773">
        <ele>659</ele>
        <time>2025-07-09T11:59:01Z</time>
      </trkpt>
      <trkpt lat="45.53364" lon="4.37712">
        <ele>658</ele>
        <time>2025-07-09T11:59:40Z</time>
      </trkpt>
      <trkpt lat="45.53335" lon="4.37663">
        <ele>658</ele>
        <time>2025-07-09T12:00:16Z</time>
      </trkpt>
      <trkpt lat="45.53307" lon="4.37632">
        <ele>661</ele>
        <time>2025-07-09T12:00:44Z</time>
      </trkpt>
      <trkpt lat="45.53281" lon="4.37588">
        <ele>663</ele>
        <time>2025-07-09T12:01:17Z</time>
      </trkpt>
      <trkpt lat="45.53244" lon="4.3755">
        <ele>666</ele>
        <time>2025-07-09T12:01:53Z</time>
      </trkpt>
    </trkseg>
  </trk>
</gpx>